sensor_id;sensor_type;location;lat;lon;timestamp;P1;durP1;ratioP1;P2;durP2;ratioP2
57441;SDS011;43284;47.042;15.498;2023-05-21T00:00:13;14.77;;;7.70;;
57441;SDS011;43284;47.042;15.498;2023-05-21T00:02:39;13.50;;;8.32;;
57441;SDS011;43284;47.042;15.498;2023-05-21T00:05:05;12.85;;;8.52;;
57441;SDS011;43284;47.042;15.498;2023-05-21T00:07:35;20.92;;;11.10;;
57441;SDS011;43284;47.042;15.498;2023-05-21T00:10:01;14.48;;;8.30;;
57441;SDS011;43284;47.042;15.498;2023-05-21T00:12:26;19.40;;;8.43;;
57441;SDS011;43284;47.042;15.498;2023-05-21T00:14:52;17.63;;;9.10;;
57441;SDS011;43284;47.042;15.498;2023-05-21T00:17:17;17.45;;;8.73;;
57441;SDS011;43284;47.042;15.498;2023-05-21T00:19:43;15.52;;;8.70;;
57441;SDS011;43284;47.042;15.498;2023-05-21T00:22:08;16.63;;;9.30;;
57441;SDS011;43284;47.042;15.498;2023-05-21T00:24:34;17.80;;;9.48;;
57441;SDS011;43284;47.042;15.498;2023-05-21T00:26:59;15.52;;;8.93;;
57441;SDS011;43284;47.042;15.498;2023-05-21T00:29:25;15.57;;;9.52;;
57441;SDS011;43284;47.042;15.498;2023-05-21T00:31:51;15.85;;;8.93;;
57441;SDS011;43284;47.042;15.498;2023-05-21T00:34:17;15.52;;;9.15;;
57441;SDS011;43284;47.042;15.498;2023-05-21T00:36:43;15.60;;;8.90;;
57441;SDS011;43284;47.042;15.498;2023-05-21T00:39:10;16.77;;;8.73;;
57441;SDS011;43284;47.042;15.498;2023-05-21T00:41:37;17.98;;;9.18;;
57441;SDS011;43284;47.042;15.498;2023-05-21T00:44:04;19.70;;;9.80;;
57441;SDS011;43284;47.042;15.498;2023-05-21T00:46:30;17.17;;;9.70;;
57441;SDS011;43284;47.042;15.498;2023-05-21T00:48:56;19.38;;;9.43;;
57441;SDS011;43284;47.042;15.498;2023-05-21T00:51:23;17.25;;;9.25;;
57441;SDS011;43284;47.042;15.498;2023-05-21T00:53:50;13.98;;;9.02;;
57441;SDS011;43284;47.042;15.498;2023-05-21T00:56:18;15.35;;;9.15;;
57441;SDS011;43284;47.042;15.498;2023-05-21T00:58:46;15.15;;;9.63;;
57441;SDS011;43284;47.042;15.498;2023-05-21T01:01:12;18.15;;;10.32;;
57441;SDS011;43284;47.042;15.498;2023-05-21T01:03:37;17.88;;;10.20;;
57441;SDS011;43284;47.042;15.498;2023-05-21T01:06:04;19.50;;;10.27;;
57441;SDS011;43284;47.042;15.498;2023-05-21T01:08:31;17.55;;;9.52;;
57441;SDS011;43284;47.042;15.498;2023-05-21T01:10:58;16.08;;;9.45;;
57441;SDS011;43284;47.042;15.498;2023-05-21T01:13:26;17.45;;;9.73;;
57441;SDS011;43284;47.042;15.498;2023-05-21T01:15:52;13.65;;;8.90;;
57441;SDS011;43284;47.042;15.498;2023-05-21T01:18:18;15.70;;;9.38;;
57441;SDS011;43284;47.042;15.498;2023-05-21T01:20:45;19.60;;;9.40;;
57441;SDS011;43284;47.042;15.498;2023-05-21T01:23:17;16.55;;;9.77;;
57441;SDS011;43284;47.042;15.498;2023-05-21T01:25:44;18.55;;;10.63;;
57441;SDS011;43284;47.042;15.498;2023-05-21T01:28:10;18.55;;;9.80;;
57441;SDS011;43284;47.042;15.498;2023-05-21T01:30:36;19.70;;;11.00;;
57441;SDS011;43284;47.042;15.498;2023-05-21T01:33:05;15.48;;;9.25;;
57441;SDS011;43284;47.042;15.498;2023-05-21T01:38:36;17.17;;;9.75;;
57441;SDS011;43284;47.042;15.498;2023-05-21T01:41:09;17.95;;;9.93;;
57441;SDS011;43284;47.042;15.498;2023-05-21T01:43:37;18.23;;;9.48;;
57441;SDS011;43284;47.042;15.498;2023-05-21T01:46:04;16.77;;;9.50;;
57441;SDS011;43284;47.042;15.498;2023-05-21T01:48:31;17.15;;;9.60;;
57441;SDS011;43284;47.042;15.498;2023-05-21T01:50:57;15.68;;;9.32;;
57441;SDS011;43284;47.042;15.498;2023-05-21T01:53:26;22.35;;;10.38;;
57441;SDS011;43284;47.042;15.498;2023-05-21T01:55:51;16.80;;;9.90;;
57441;SDS011;43284;47.042;15.498;2023-05-21T01:58:18;20.00;;;10.90;;
57441;SDS011;43284;47.042;15.498;2023-05-21T02:00:45;21.13;;;10.05;;
57441;SDS011;43284;47.042;15.498;2023-05-21T02:03:11;16.98;;;10.05;;
57441;SDS011;43284;47.042;15.498;2023-05-21T02:05:39;15.93;;;9.27;;
57441;SDS011;43284;47.042;15.498;2023-05-21T02:08:04;18.58;;;10.38;;
57441;SDS011;43284;47.042;15.498;2023-05-21T02:10:32;16.98;;;9.90;;
57441;SDS011;43284;47.042;15.498;2023-05-21T02:12:58;19.58;;;10.77;;
57441;SDS011;43284;47.042;15.498;2023-05-21T02:15:24;21.58;;;11.48;;
57441;SDS011;43284;47.042;15.498;2023-05-21T02:17:49;19.20;;;10.13;;
57441;SDS011;43284;47.042;15.498;2023-05-21T02:20:15;20.35;;;10.68;;
57441;SDS011;43284;47.042;15.498;2023-05-21T02:22:42;19.90;;;10.38;;
57441;SDS011;43284;47.042;15.498;2023-05-21T02:25:09;15.88;;;9.98;;
57441;SDS011;43284;47.042;15.498;2023-05-21T02:27:36;15.00;;;9.55;;
57441;SDS011;43284;47.042;15.498;2023-05-21T02:30:02;17.63;;;9.63;;
57441;SDS011;43284;47.042;15.498;2023-05-21T02:32:29;16.63;;;9.60;;
57441;SDS011;43284;47.042;15.498;2023-05-21T02:34:59;20.65;;;10.15;;
57441;SDS011;43284;47.042;15.498;2023-05-21T02:37:26;17.85;;;10.18;;
57441;SDS011;43284;47.042;15.498;2023-05-21T02:39:55;17.80;;;10.07;;
57441;SDS011;43284;47.042;15.498;2023-05-21T02:42:21;19.05;;;9.43;;
57441;SDS011;43284;47.042;15.498;2023-05-21T02:44:50;18.05;;;10.52;;
57441;SDS011;43284;47.042;15.498;2023-05-21T02:47:17;16.92;;;9.85;;
57441;SDS011;43284;47.042;15.498;2023-05-21T02:49:43;20.35;;;10.38;;
57441;SDS011;43284;47.042;15.498;2023-05-21T02:52:09;17.70;;;10.50;;
57441;SDS011;43284;47.042;15.498;2023-05-21T02:54:34;20.17;;;11.02;;
57441;SDS011;43284;47.042;15.498;2023-05-21T02:57:00;16.40;;;9.70;;
57441;SDS011;43284;47.042;15.498;2023-05-21T02:59:25;20.38;;;10.57;;
57441;SDS011;43284;47.042;15.498;2023-05-21T03:01:51;21.58;;;10.80;;
57441;SDS011;43284;47.042;15.498;2023-05-21T03:04:16;20.40;;;10.60;;
57441;SDS011;43284;47.042;15.498;2023-05-21T03:06:42;18.65;;;10.45;;
57441;SDS011;43284;47.042;15.498;2023-05-21T03:09:08;20.20;;;10.43;;
57441;SDS011;43284;47.042;15.498;2023-05-21T03:11:35;17.95;;;9.48;;
57441;SDS011;43284;47.042;15.498;2023-05-21T03:14:00;15.80;;;9.43;;
57441;SDS011;43284;47.042;15.498;2023-05-21T03:16:26;18.20;;;10.55;;
57441;SDS011;43284;47.042;15.498;2023-05-21T03:18:52;14.63;;;9.13;;
57441;SDS011;43284;47.042;15.498;2023-05-21T03:21:18;18.52;;;10.40;;
57441;SDS011;43284;47.042;15.498;2023-05-21T03:23:47;23.35;;;10.82;;
57441;SDS011;43284;47.042;15.498;2023-05-21T03:26:13;28.70;;;11.13;;
57441;SDS011;43284;47.042;15.498;2023-05-21T03:28:38;18.98;;;9.98;;
57441;SDS011;43284;47.042;15.498;2023-05-21T03:31:04;22.60;;;9.90;;
57441;SDS011;43284;47.042;15.498;2023-05-21T03:33:29;21.20;;;10.38;;
57441;SDS011;43284;47.042;15.498;2023-05-21T03:35:55;18.42;;;9.90;;
57441;SDS011;43284;47.042;15.498;2023-05-21T03:38:20;18.83;;;9.95;;
57441;SDS011;43284;47.042;15.498;2023-05-21T03:40:46;18.42;;;10.30;;
57441;SDS011;43284;47.042;15.498;2023-05-21T03:43:11;16.83;;;9.98;;
57441;SDS011;43284;47.042;15.498;2023-05-21T03:45:37;16.75;;;10.68;;
57441;SDS011;43284;47.042;15.498;2023-05-21T03:48:02;19.40;;;10.68;;
57441;SDS011;43284;47.042;15.498;2023-05-21T03:50:28;18.50;;;10.77;;
57441;SDS011;43284;47.042;15.498;2023-05-21T03:52:54;22.50;;;10.73;;
57441;SDS011;43284;47.042;15.498;2023-05-21T03:55:19;22.58;;;10.85;;
57441;SDS011;43284;47.042;15.498;2023-05-21T03:57:45;20.80;;;10.07;;
57441;SDS011;43284;47.042;15.498;2023-05-21T04:00:10;19.55;;;10.65;;
57441;SDS011;43284;47.042;15.498;2023-05-21T04:02:36;19.65;;;9.75;;
57441;SDS011;43284;47.042;15.498;2023-05-21T04:05:01;15.82;;;9.73;;
57441;SDS011;43284;47.042;15.498;2023-05-21T04:07:27;18.83;;;10.60;;
57441;SDS011;43284;47.042;15.498;2023-05-21T04:09:54;18.08;;;10.48;;
57441;SDS011;43284;47.042;15.498;2023-05-21T04:12:20;19.92;;;10.95;;
57441;SDS011;43284;47.042;15.498;2023-05-21T04:14:46;20.10;;;11.02;;
57441;SDS011;43284;47.042;15.498;2023-05-21T04:17:12;18.88;;;10.65;;
57441;SDS011;43284;47.042;15.498;2023-05-21T04:19:37;19.30;;;11.00;;
57441;SDS011;43284;47.042;15.498;2023-05-21T04:22:03;18.33;;;10.05;;
57441;SDS011;43284;47.042;15.498;2023-05-21T04:24:29;18.58;;;10.63;;
57441;SDS011;43284;47.042;15.498;2023-05-21T04:26:55;19.25;;;10.88;;
57441;SDS011;43284;47.042;15.498;2023-05-21T04:29:25;22.48;;;12.10;;
57441;SDS011;43284;47.042;15.498;2023-05-21T04:31:51;25.13;;;12.82;;
57441;SDS011;43284;47.042;15.498;2023-05-21T04:34:17;21.83;;;12.48;;
57441;SDS011;43284;47.042;15.498;2023-05-21T04:36:43;24.85;;;12.32;;
57441;SDS011;43284;47.042;15.498;2023-05-21T04:39:10;21.10;;;11.52;;
57441;SDS011;43284;47.042;15.498;2023-05-21T04:41:36;26.25;;;12.77;;
57441;SDS011;43284;47.042;15.498;2023-05-21T04:44:03;21.65;;;12.52;;
57441;SDS011;43284;47.042;15.498;2023-05-21T04:46:30;25.83;;;12.98;;
57441;SDS011;43284;47.042;15.498;2023-05-21T04:48:55;22.13;;;11.82;;
57441;SDS011;43284;47.042;15.498;2023-05-21T04:51:22;22.58;;;12.93;;
57441;SDS011;43284;47.042;15.498;2023-05-21T04:53:50;20.58;;;12.75;;
57441;SDS011;43284;47.042;15.498;2023-05-21T04:56:17;19.95;;;11.88;;
57441;SDS011;43284;47.042;15.498;2023-05-21T04:58:43;24.70;;;12.85;;
57441;SDS011;43284;47.042;15.498;2023-05-21T05:01:09;24.90;;;13.35;;
57441;SDS011;43284;47.042;15.498;2023-05-21T05:03:36;23.27;;;12.70;;
57441;SDS011;43284;47.042;15.498;2023-05-21T05:06:02;24.05;;;14.15;;
57441;SDS011;43284;47.042;15.498;2023-05-21T05:08:28;26.63;;;14.65;;
57441;SDS011;43284;47.042;15.498;2023-05-21T05:10:54;22.35;;;12.70;;
57441;SDS011;43284;47.042;15.498;2023-05-21T05:13:19;22.10;;;12.93;;
57441;SDS011;43284;47.042;15.498;2023-05-21T05:15:45;23.33;;;13.35;;
57441;SDS011;43284;47.042;15.498;2023-05-21T05:18:11;20.58;;;13.10;;
57441;SDS011;43284;47.042;15.498;2023-05-21T05:20:37;23.45;;;12.98;;
57441;SDS011;43284;47.042;15.498;2023-05-21T05:23:02;25.13;;;13.73;;
57441;SDS011;43284;47.042;15.498;2023-05-21T05:25:28;30.60;;;14.98;;
57441;SDS011;43284;47.042;15.498;2023-05-21T05:27:53;25.52;;;13.07;;
57441;SDS011;43284;47.042;15.498;2023-05-21T05:30:19;24.02;;;12.30;;
57441;SDS011;43284;47.042;15.498;2023-05-21T05:32:44;21.95;;;13.38;;
57441;SDS011;43284;47.042;15.498;2023-05-21T05:35:10;25.77;;;12.80;;
57441;SDS011;43284;47.042;15.498;2023-05-21T05:37:36;20.27;;;12.25;;
57441;SDS011;43284;47.042;15.498;2023-05-21T05:40:02;23.15;;;12.23;;
57441;SDS011;43284;47.042;15.498;2023-05-21T05:42:29;25.85;;;13.18;;
57441;SDS011;43284;47.042;15.498;2023-05-21T05:44:55;24.98;;;13.10;;
57441;SDS011;43284;47.042;15.498;2023-05-21T05:47:20;24.38;;;14.10;;
57441;SDS011;43284;47.042;15.498;2023-05-21T05:49:46;22.75;;;12.27;;
57441;SDS011;43284;47.042;15.498;2023-05-21T05:52:11;24.42;;;12.48;;
57441;SDS011;43284;47.042;15.498;2023-05-21T05:54:37;22.35;;;12.65;;
57441;SDS011;43284;47.042;15.498;2023-05-21T05:57:02;22.40;;;13.20;;
57441;SDS011;43284;47.042;15.498;2023-05-21T05:59:28;20.25;;;12.93;;
57441;SDS011;43284;47.042;15.498;2023-05-21T06:01:53;25.75;;;13.65;;
57441;SDS011;43284;47.042;15.498;2023-05-21T06:04:19;22.08;;;12.15;;
57441;SDS011;43284;47.042;15.498;2023-05-21T06:06:44;22.17;;;11.43;;
57441;SDS011;43284;47.042;15.498;2023-05-21T06:09:11;20.70;;;11.60;;
57441;SDS011;43284;47.042;15.498;2023-05-21T06:11:37;21.92;;;11.93;;
57441;SDS011;43284;47.042;15.498;2023-05-21T06:14:02;18.75;;;11.73;;
57441;SDS011;43284;47.042;15.498;2023-05-21T06:16:28;21.02;;;11.43;;
57441;SDS011;43284;47.042;15.498;2023-05-21T06:18:57;18.95;;;11.00;;
57441;SDS011;43284;47.042;15.498;2023-05-21T06:21:23;21.48;;;11.43;;
57441;SDS011;43284;47.042;15.498;2023-05-21T06:23:49;22.23;;;11.63;;
57441;SDS011;43284;47.042;15.498;2023-05-21T06:26:14;21.83;;;10.93;;
57441;SDS011;43284;47.042;15.498;2023-05-21T06:28:40;22.77;;;11.25;;
57441;SDS011;43284;47.042;15.498;2023-05-21T06:31:05;18.90;;;10.90;;
57441;SDS011;43284;47.042;15.498;2023-05-21T06:33:31;17.95;;;10.38;;
57441;SDS011;43284;47.042;15.498;2023-05-21T06:35:57;18.33;;;10.73;;
57441;SDS011;43284;47.042;15.498;2023-05-21T06:38:22;15.55;;;9.68;;
57441;SDS011;43284;47.042;15.498;2023-05-21T06:40:48;19.10;;;10.05;;
57441;SDS011;43284;47.042;15.498;2023-05-21T06:43:14;17.05;;;9.88;;
57441;SDS011;43284;47.042;15.498;2023-05-21T06:45:40;15.43;;;9.27;;
57441;SDS011;43284;47.042;15.498;2023-05-21T06:48:05;15.63;;;8.90;;
57441;SDS011;43284;47.042;15.498;2023-05-21T06:50:31;18.33;;;10.32;;
57441;SDS011;43284;47.042;15.498;2023-05-21T06:52:56;13.63;;;8.90;;
57441;SDS011;43284;47.042;15.498;2023-05-21T06:55:22;18.95;;;10.50;;
57441;SDS011;43284;47.042;15.498;2023-05-21T06:57:47;14.98;;;9.07;;
57441;SDS011;43284;47.042;15.498;2023-05-21T07:00:12;19.60;;;10.80;;
57441;SDS011;43284;47.042;15.498;2023-05-21T07:02:38;16.52;;;10.25;;
57441;SDS011;43284;47.042;15.498;2023-05-21T07:05:04;19.83;;;9.88;;
57441;SDS011;43284;47.042;15.498;2023-05-21T07:07:30;15.68;;;8.68;;
57441;SDS011;43284;47.042;15.498;2023-05-21T07:09:55;15.68;;;9.60;;
57441;SDS011;43284;47.042;15.498;2023-05-21T07:12:21;15.48;;;8.93;;
57441;SDS011;43284;47.042;15.498;2023-05-21T07:14:46;19.70;;;8.98;;
57441;SDS011;43284;47.042;15.498;2023-05-21T07:17:12;18.67;;;9.38;;
57441;SDS011;43284;47.042;15.498;2023-05-21T07:19:37;14.65;;;8.73;;
57441;SDS011;43284;47.042;15.498;2023-05-21T07:22:03;20.38;;;9.52;;
57441;SDS011;43284;47.042;15.498;2023-05-21T07:24:29;13.48;;;8.52;;
57441;SDS011;43284;47.042;15.498;2023-05-21T07:26:55;14.43;;;9.30;;
57441;SDS011;43284;47.042;15.498;2023-05-21T07:29:20;19.15;;;8.90;;
57441;SDS011;43284;47.042;15.498;2023-05-21T07:31:46;14.77;;;8.63;;
57441;SDS011;43284;47.042;15.498;2023-05-21T07:34:11;16.30;;;9.00;;
57441;SDS011;43284;47.042;15.498;2023-05-21T07:36:37;14.82;;;8.30;;
57441;SDS011;43284;47.042;15.498;2023-05-21T07:39:03;15.75;;;8.63;;
57441;SDS011;43284;47.042;15.498;2023-05-21T07:41:29;14.35;;;8.73;;
57441;SDS011;43284;47.042;15.498;2023-05-21T07:43:54;13.35;;;8.70;;
57441;SDS011;43284;47.042;15.498;2023-05-21T07:46:20;13.27;;;8.30;;
57441;SDS011;43284;47.042;15.498;2023-05-21T07:48:46;14.23;;;8.57;;
57441;SDS011;43284;47.042;15.498;2023-05-21T07:51:12;15.98;;;8.75;;
57441;SDS011;43284;47.042;15.498;2023-05-21T07:53:38;14.02;;;8.05;;
57441;SDS011;43284;47.042;15.498;2023-05-21T07:56:04;15.85;;;8.55;;
57441;SDS011;43284;47.042;15.498;2023-05-21T07:58:29;14.90;;;8.88;;
57441;SDS011;43284;47.042;15.498;2023-05-21T08:00:55;16.55;;;8.77;;
57441;SDS011;43284;47.042;15.498;2023-05-21T08:03:21;13.88;;;8.77;;
57441;SDS011;43284;47.042;15.498;2023-05-21T08:05:47;13.80;;;7.90;;
57441;SDS011;43284;47.042;15.498;2023-05-21T08:08:16;18.77;;;8.80;;
57441;SDS011;43284;47.042;15.498;2023-05-21T08:10:43;16.45;;;8.85;;
57441;SDS011;43284;47.042;15.498;2023-05-21T08:13:10;12.52;;;8.32;;
57441;SDS011;43284;47.042;15.498;2023-05-21T08:15:36;11.73;;;7.60;;
57441;SDS011;43284;47.042;15.498;2023-05-21T08:18:01;14.77;;;7.45;;
57441;SDS011;43284;47.042;15.498;2023-05-21T08:20:27;13.10;;;7.68;;
57441;SDS011;43284;47.042;15.498;2023-05-21T08:22:55;11.63;;;6.85;;
57441;SDS011;43284;47.042;15.498;2023-05-21T08:25:20;11.60;;;6.25;;
57441;SDS011;43284;47.042;15.498;2023-05-21T08:27:46;10.60;;;6.88;;
57441;SDS011;43284;47.042;15.498;2023-05-21T08:30:11;11.20;;;7.03;;
57441;SDS011;43284;47.042;15.498;2023-05-21T08:32:37;14.38;;;7.57;;
57441;SDS011;43284;47.042;15.498;2023-05-21T08:35:02;13.80;;;6.85;;
57441;SDS011;43284;47.042;15.498;2023-05-21T08:37:28;9.38;;;5.78;;
57441;SDS011;43284;47.042;15.498;2023-05-21T08:39:54;9.75;;;6.55;;
57441;SDS011;43284;47.042;15.498;2023-05-21T08:42:34;12.90;;;7.20;;
57441;SDS011;43284;47.042;15.498;2023-05-21T08:45:04;9.13;;;6.47;;
57441;SDS011;43284;47.042;15.498;2023-05-21T08:47:31;12.07;;;6.72;;
57441;SDS011;43284;47.042;15.498;2023-05-21T08:49:59;12.30;;;6.18;;
57441;SDS011;43284;47.042;15.498;2023-05-21T08:52:29;10.77;;;6.47;;
57441;SDS011;43284;47.042;15.498;2023-05-21T08:54:55;11.23;;;6.07;;
57441;SDS011;43284;47.042;15.498;2023-05-21T08:57:22;10.75;;;6.65;;
57441;SDS011;43284;47.042;15.498;2023-05-21T08:59:50;10.27;;;6.47;;
57441;SDS011;43284;47.042;15.498;2023-05-21T09:02:16;7.78;;;5.60;;
57441;SDS011;43284;47.042;15.498;2023-05-21T09:04:44;10.52;;;6.30;;
57441;SDS011;43284;47.042;15.498;2023-05-21T09:07:14;9.00;;;5.63;;
57441;SDS011;43284;47.042;15.498;2023-05-21T09:09:43;11.05;;;6.25;;
57441;SDS011;43284;47.042;15.498;2023-05-21T09:12:22;11.35;;;5.65;;
57441;SDS011;43284;47.042;15.498;2023-05-21T09:14:50;9.52;;;5.65;;
57441;SDS011;43284;47.042;15.498;2023-05-21T09:17:16;11.52;;;6.30;;
57441;SDS011;43284;47.042;15.498;2023-05-21T09:25:15;12.32;;;6.22;;
57441;SDS011;43284;47.042;15.498;2023-05-21T09:27:48;9.50;;;6.03;;
57441;SDS011;43284;47.042;15.498;2023-05-21T09:30:15;11.70;;;6.57;;
57441;SDS011;43284;47.042;15.498;2023-05-21T09:32:42;9.23;;;6.70;;
57441;SDS011;43284;47.042;15.498;2023-05-21T09:35:09;10.23;;;6.07;;
57441;SDS011;43284;47.042;15.498;2023-05-21T09:37:42;13.40;;;7.03;;
57441;SDS011;43284;47.042;15.498;2023-05-21T09:40:10;10.23;;;6.47;;
57441;SDS011;43284;47.042;15.498;2023-05-21T09:42:40;10.50;;;6.55;;
57441;SDS011;43284;47.042;15.498;2023-05-21T09:45:10;11.68;;;6.53;;
57441;SDS011;43284;47.042;15.498;2023-05-21T09:47:41;11.95;;;6.97;;
57441;SDS011;43284;47.042;15.498;2023-05-21T09:50:11;9.20;;;6.03;;
57441;SDS011;43284;47.042;15.498;2023-05-21T09:52:44;9.48;;;6.50;;
57441;SDS011;43284;47.042;15.498;2023-05-21T09:55:11;11.18;;;7.00;;
57441;SDS011;43284;47.042;15.498;2023-05-21T10:00:31;10.48;;;6.13;;
57441;SDS011;43284;47.042;15.498;2023-05-21T10:02:57;10.15;;;6.50;;
57441;SDS011;43284;47.042;15.498;2023-05-21T10:05:26;12.30;;;6.50;;
57441;SDS011;43284;47.042;15.498;2023-05-21T10:08:00;12.60;;;6.63;;
57441;SDS011;43284;47.042;15.498;2023-05-21T10:10:28;12.10;;;6.95;;
57441;SDS011;43284;47.042;15.498;2023-05-21T10:12:58;9.43;;;6.82;;
57441;SDS011;43284;47.042;15.498;2023-05-21T10:15:30;8.77;;;5.53;;
57441;SDS011;43284;47.042;15.498;2023-05-21T10:17:59;10.05;;;6.40;;
57441;SDS011;43284;47.042;15.498;2023-05-21T10:23:38;9.77;;;5.93;;
57441;SDS011;43284;47.042;15.498;2023-05-21T10:26:40;9.20;;;6.38;;
57441;SDS011;43284;47.042;15.498;2023-05-21T10:29:10;9.75;;;6.03;;
57441;SDS011;43284;47.042;15.498;2023-05-21T10:31:57;8.88;;;6.28;;
57441;SDS011;43284;47.042;15.498;2023-05-21T10:38:46;10.82;;;6.40;;
57441;SDS011;43284;47.042;15.498;2023-05-21T10:47:39;11.65;;;6.57;;
57441;SDS011;43284;47.042;15.498;2023-05-21T10:52:51;10.13;;;6.13;;
57441;SDS011;43284;47.042;15.498;2023-05-21T11:01:20;10.45;;;6.43;;
57441;SDS011;43284;47.042;15.498;2023-05-21T11:03:46;9.05;;;6.60;;
57441;SDS011;43284;47.042;15.498;2023-05-21T11:06:21;10.85;;;6.55;;
57441;SDS011;43284;47.042;15.498;2023-05-21T11:08:49;9.73;;;6.80;;
57441;SDS011;43284;47.042;15.498;2023-05-21T11:12:02;8.65;;;5.95;;
57441;SDS011;43284;47.042;15.498;2023-05-21T11:14:06;11.57;;;6.72;;
57441;SDS011;43284;47.042;15.498;2023-05-21T11:16:52;10.05;;;6.45;;
57441;SDS011;43284;47.042;15.498;2023-05-21T11:19:18;9.43;;;6.40;;
57441;SDS011;43284;47.042;15.498;2023-05-21T11:21:48;10.40;;;6.57;;
57441;SDS011;43284;47.042;15.498;2023-05-21T11:24:18;8.77;;;5.75;;
57441;SDS011;43284;47.042;15.498;2023-05-21T11:29:14;7.93;;;5.90;;
57441;SDS011;43284;47.042;15.498;2023-05-21T11:31:46;9.57;;;5.97;;
57441;SDS011;43284;47.042;15.498;2023-05-21T11:34:19;13.45;;;6.30;;
57441;SDS011;43284;47.042;15.498;2023-05-21T11:37:20;9.73;;;5.45;;
57441;SDS011;43284;47.042;15.498;2023-05-21T11:39:44;11.27;;;6.47;;
57441;SDS011;43284;47.042;15.498;2023-05-21T11:42:11;10.85;;;6.55;;
57441;SDS011;43284;47.042;15.498;2023-05-21T11:47:06;12.45;;;6.55;;
57441;SDS011;43284;47.042;15.498;2023-05-21T11:49:33;10.13;;;6.00;;
57441;SDS011;43284;47.042;15.498;2023-05-21T11:52:00;12.23;;;6.07;;
57441;SDS011;43284;47.042;15.498;2023-05-21T11:54:26;9.00;;;6.57;;
57441;SDS011;43284;47.042;15.498;2023-05-21T11:56:53;12.05;;;7.03;;
57441;SDS011;43284;47.042;15.498;2023-05-21T11:59:19;12.15;;;6.75;;
57441;SDS011;43284;47.042;15.498;2023-05-21T12:01:45;11.50;;;6.55;;
57441;SDS011;43284;47.042;15.498;2023-05-21T12:04:10;9.00;;;6.22;;
57441;SDS011;43284;47.042;15.498;2023-05-21T12:06:37;10.95;;;6.80;;
57441;SDS011;43284;47.042;15.498;2023-05-21T12:09:06;10.00;;;6.57;;
57441;SDS011;43284;47.042;15.498;2023-05-21T12:11:38;10.90;;;6.43;;
57441;SDS011;43284;47.042;15.498;2023-05-21T12:14:11;12.55;;;6.53;;
57441;SDS011;43284;47.042;15.498;2023-05-21T12:16:38;8.70;;;6.23;;
57441;SDS011;43284;47.042;15.498;2023-05-21T12:19:04;9.02;;;6.55;;
57441;SDS011;43284;47.042;15.498;2023-05-21T12:21:30;12.60;;;6.15;;
57441;SDS011;43284;47.042;15.498;2023-05-21T12:23:57;8.05;;;6.25;;
57441;SDS011;43284;47.042;15.498;2023-05-21T12:26:23;11.88;;;6.53;;
57441;SDS011;43284;47.042;15.498;2023-05-21T12:28:52;11.80;;;6.13;;
57441;SDS011;43284;47.042;15.498;2023-05-21T12:31:21;12.95;;;7.05;;
57441;SDS011;43284;47.042;15.498;2023-05-21T12:33:50;9.65;;;6.57;;
57441;SDS011;43284;47.042;15.498;2023-05-21T12:36:24;11.82;;;6.80;;
57441;SDS011;43284;47.042;15.498;2023-05-21T12:38:52;9.38;;;6.03;;
57441;SDS011;43284;47.042;15.498;2023-05-21T12:41:18;10.95;;;6.20;;
57441;SDS011;43284;47.042;15.498;2023-05-21T12:43:44;11.40;;;7.20;;
57441;SDS011;43284;47.042;15.498;2023-05-21T12:46:10;10.35;;;6.22;;
57441;SDS011;43284;47.042;15.498;2023-05-21T12:48:38;11.32;;;6.28;;
57441;SDS011;43284;47.042;15.498;2023-05-21T12:51:06;11.80;;;6.05;;
57441;SDS011;43284;47.042;15.498;2023-05-21T12:53:35;9.68;;;5.93;;
57441;SDS011;43284;47.042;15.498;2023-05-21T12:56:11;10.05;;;6.75;;
57441;SDS011;43284;47.042;15.498;2023-05-21T12:58:38;10.18;;;5.95;;
57441;SDS011;43284;47.042;15.498;2023-05-21T13:01:07;13.48;;;6.90;;
57441;SDS011;43284;47.042;15.498;2023-05-21T13:03:34;11.30;;;6.05;;
57441;SDS011;43284;47.042;15.498;2023-05-21T13:06:00;9.45;;;6.03;;
57441;SDS011;43284;47.042;15.498;2023-05-21T13:08:26;9.35;;;5.57;;
57441;SDS011;43284;47.042;15.498;2023-05-21T13:10:52;13.05;;;5.88;;
57441;SDS011;43284;47.042;15.498;2023-05-21T13:13:18;10.57;;;5.68;;
57441;SDS011;43284;47.042;15.498;2023-05-21T13:15:43;10.10;;;5.68;;
57441;SDS011;43284;47.042;15.498;2023-05-21T13:18:09;9.75;;;5.45;;
57441;SDS011;43284;47.042;15.498;2023-05-21T13:20:36;12.85;;;5.82;;
57441;SDS011;43284;47.042;15.498;2023-05-21T13:23:02;7.22;;;5.25;;
57441;SDS011;43284;47.042;15.498;2023-05-21T13:25:28;10.07;;;6.28;;
57441;SDS011;43284;47.042;15.498;2023-05-21T13:27:59;9.88;;;6.10;;
57441;SDS011;43284;47.042;15.498;2023-05-21T13:30:26;9.02;;;6.25;;
57441;SDS011;43284;47.042;15.498;2023-05-21T13:32:51;13.52;;;6.13;;
57441;SDS011;43284;47.042;15.498;2023-05-21T13:35:17;11.93;;;6.32;;
57441;SDS011;43284;47.042;15.498;2023-05-21T13:37:43;8.65;;;5.50;;
57441;SDS011;43284;47.042;15.498;2023-05-21T13:40:09;11.27;;;6.95;;
57441;SDS011;43284;47.042;15.498;2023-05-21T13:42:36;10.00;;;5.88;;
57441;SDS011;43284;47.042;15.498;2023-05-21T13:45:03;10.18;;;6.00;;
57441;SDS011;43284;47.042;15.498;2023-05-21T13:47:29;8.23;;;5.47;;
57441;SDS011;43284;47.042;15.498;2023-05-21T13:49:56;8.77;;;5.75;;
57441;SDS011;43284;47.042;15.498;2023-05-21T13:52:21;10.65;;;5.63;;
57441;SDS011;43284;47.042;15.498;2023-05-21T13:54:47;7.78;;;5.53;;
57441;SDS011;43284;47.042;15.498;2023-05-21T13:57:12;10.15;;;5.75;;
57441;SDS011;43284;47.042;15.498;2023-05-21T13:59:38;10.73;;;6.00;;
57441;SDS011;43284;47.042;15.498;2023-05-21T14:02:07;9.52;;;6.15;;
57441;SDS011;43284;47.042;15.498;2023-05-21T14:04:34;10.20;;;6.00;;
57441;SDS011;43284;47.042;15.498;2023-05-21T14:07:00;13.95;;;6.28;;
57441;SDS011;43284;47.042;15.498;2023-05-21T14:09:25;10.25;;;6.45;;
57441;SDS011;43284;47.042;15.498;2023-05-21T14:11:54;9.30;;;5.50;;
57441;SDS011;43284;47.042;15.498;2023-05-21T14:14:21;12.65;;;6.13;;
57441;SDS011;43284;47.042;15.498;2023-05-21T14:16:47;9.15;;;6.32;;
57441;SDS011;43284;47.042;15.498;2023-05-21T14:19:14;11.60;;;6.30;;
57441;SDS011;43284;47.042;15.498;2023-05-21T14:21:39;9.15;;;5.78;;
57441;SDS011;43284;47.042;15.498;2023-05-21T14:24:05;13.23;;;6.05;;
57441;SDS011;43284;47.042;15.498;2023-05-21T14:26:31;11.23;;;6.50;;
57441;SDS011;43284;47.042;15.498;2023-05-21T14:28:57;10.27;;;6.43;;
57441;SDS011;43284;47.042;15.498;2023-05-21T14:31:22;10.38;;;5.95;;
57441;SDS011;43284;47.042;15.498;2023-05-21T14:33:49;9.48;;;5.85;;
57441;SDS011;43284;47.042;15.498;2023-05-21T14:36:15;12.80;;;5.40;;
57441;SDS011;43284;47.042;15.498;2023-05-21T14:38:41;10.20;;;5.38;;
57441;SDS011;43284;47.042;15.498;2023-05-21T14:41:06;10.60;;;6.18;;
57441;SDS011;43284;47.042;15.498;2023-05-21T14:43:32;9.32;;;5.40;;
57441;SDS011;43284;47.042;15.498;2023-05-21T14:45:58;8.52;;;6.15;;
57441;SDS011;43284;47.042;15.498;2023-05-21T14:48:23;7.45;;;5.50;;
57441;SDS011;43284;47.042;15.498;2023-05-21T14:50:49;15.68;;;5.97;;
57441;SDS011;43284;47.042;15.498;2023-05-21T14:53:15;13.55;;;5.85;;
57441;SDS011;43284;47.042;15.498;2023-05-21T14:55:41;9.68;;;5.80;;